Belfast Municipal (BST)
Belfast, ME
Field Elevation: 198
Lat: 44°24.56N  Long: 69°00.71W
CTAF/Unicom Freq: 122.9750
   
     For Weather-by-Phone, call 207-930-7071
Weather Advisories
2021-03-05   09:48 Z
Altimeter 29.59" Hg
Wind 340° @ 13 KT
Gusts 18 KT
Visibility 10 SM
Ceiling FEW130
Temperature -9° C (16° F)
Dewpoint -18° C (0° F)
Relative Humidity 47%
Density Altitude --
Condensation Altitude 4,600 feet
Wind Chill: -17° C (1° F)
Wind and Runways
Indicated Runway = 33
Headwind = 13 kt
Crosswind = 2 kt
History
 
 
 
More Info
NOAA Forecast
 
 
About Us
Belfort Instrument
 
 
FAA Disclaimer: The data displayed is for advisory purposes only and is not to be used for flight planning or operations. For official data, please call 207-930-7071 to hear the current automated AWOS voice message.
  METAR BST 050948Z AUTO 34013G18KT 10 SM FEW130 M09/M18 A2959